createdAt,value
2023-03-29T00:00:11.141Z,6.07
2023-03-29T00:01:11.211Z,6.09
2023-03-29T00:02:12.328Z,6.11
2023-03-29T00:03:11.634Z,6.13
2023-03-29T00:04:11.736Z,6.15
2023-03-29T00:05:11.721Z,6.17
2023-03-29T00:06:11.861Z,6.18
2023-03-29T00:07:11.967Z,6.20
2023-03-29T00:08:12.124Z,6.22
2023-03-29T00:09:12.256Z,6.25
2023-03-29T00:10:12.378Z,6.29
2023-03-29T00:11:12.522Z,6.31
2023-03-29T00:12:12.606Z,6.33
2023-03-29T00:13:12.765Z,6.35
2023-03-29T00:14:12.932Z,6.37
2023-03-29T00:15:13.055Z,6.38
2023-03-29T00:16:13.228Z,6.39
2023-03-29T00:17:13.300Z,6.40
2023-03-29T00:18:13.435Z,6.42
2023-03-29T00:19:13.500Z,6.43
2023-03-29T00:20:13.670Z,6.43
2023-03-29T00:21:13.812Z,6.44
2023-03-29T00:22:13.966Z,6.45
2023-03-29T00:23:14.050Z,6.45
2023-03-29T00:24:14.241Z,6.46
2023-03-29T00:25:14.323Z,6.47
2023-03-29T00:26:14.508Z,6.48
2023-03-29T00:27:14.660Z,6.49
2023-03-29T00:28:14.753Z,6.50
2023-03-29T00:29:14.912Z,6.51
2023-03-29T00:30:14.994Z,6.51
2023-03-29T00:31:15.181Z,6.52
2023-03-29T00:32:15.287Z,6.53
2023-03-29T00:33:15.401Z,6.54
2023-03-29T00:34:15.525Z,6.54
2023-03-29T00:35:15.625Z,6.55
2023-03-29T00:36:15.801Z,6.56
2023-03-29T00:37:15.987Z,6.56
2023-03-29T00:38:16.040Z,6.56
2023-03-29T00:39:16.204Z,6.56
2023-03-29T00:40:16.323Z,6.56
2023-03-29T00:41:16.436Z,6.57
2023-03-29T00:42:16.581Z,6.57
2023-03-29T00:43:16.733Z,6.58
2023-03-29T00:44:16.830Z,6.59
2023-03-29T00:45:16.983Z,6.61
2023-03-29T00:46:17.127Z,6.62
2023-03-29T00:47:17.199Z,6.64
2023-03-29T00:48:17.378Z,6.65
2023-03-29T00:49:17.537Z,6.67
2023-03-29T00:50:17.598Z,6.68
2023-03-29T00:51:17.709Z,6.69
2023-03-29T00:52:17.825Z,6.70
2023-03-29T00:53:18.048Z,6.70
2023-03-29T00:54:18.108Z,6.70
2023-03-29T00:55:18.200Z,6.70
2023-03-29T00:56:18.332Z,6.69
2023-03-29T00:57:18.659Z,6.69
2023-03-29T00:58:18.586Z,6.68
2023-03-29T00:59:18.752Z,6.68
2023-03-29T01:00:18.795Z,6.69
2023-03-29T01:01:18.966Z,6.70
2023-03-29T01:02:19.088Z,6.71
2023-03-29T01:03:19.342Z,6.71
2023-03-29T01:04:19.299Z,6.72
2023-03-29T01:05:19.464Z,6.72
2023-03-29T01:06:19.554Z,6.72
2023-03-29T01:07:19.695Z,6.72
2023-03-29T01:08:19.880Z,6.73
2023-03-29T01:09:19.929Z,6.74
2023-03-29T01:10:20.120Z,6.75
2023-03-29T01:11:20.205Z,6.75
2023-03-29T01:12:20.342Z,6.76
2023-03-29T01:13:20.530Z,6.76
2023-03-29T01:14:20.616Z,6.76
2023-03-29T01:15:20.792Z,6.76
2023-03-29T01:16:20.941Z,6.76
2023-03-29T01:17:21.014Z,6.76
2023-03-29T01:18:21.178Z,6.76
2023-03-29T01:19:21.280Z,6.75
2023-03-29T01:20:21.508Z,6.74
2023-03-29T01:21:21.566Z,6.73
2023-03-29T01:22:21.698Z,6.73
2023-03-29T01:23:21.845Z,6.74
2023-03-29T01:24:22.035Z,6.74
2023-03-29T01:25:22.198Z,6.74
2023-03-29T01:26:22.221Z,6.74
2023-03-29T01:27:22.361Z,6.75
2023-03-29T01:28:22.501Z,6.76
2023-03-29T01:29:22.644Z,6.76
2023-03-29T01:30:22.828Z,6.75
2023-03-29T01:31:22.974Z,6.74
2023-03-29T01:32:23.085Z,6.72
2023-03-29T01:33:23.210Z,6.71
2023-03-29T01:34:23.346Z,6.70
2023-03-29T01:35:23.568Z,6.68
2023-03-29T01:36:23.660Z,6.67
2023-03-29T01:37:23.767Z,6.67
2023-03-29T01:38:23.880Z,6.67
2023-03-29T01:39:24.002Z,6.68
2023-03-29T01:40:24.340Z,6.69
2023-03-29T01:41:24.282Z,6.70
2023-03-29T01:42:24.377Z,6.71
2023-03-29T01:43:24.526Z,6.72
2023-03-29T01:44:24.657Z,6.73
2023-03-29T01:45:24.753Z,6.74
2023-03-29T01:46:24.951Z,6.75
2023-03-29T01:47:25.003Z,6.75
2023-03-29T01:48:25.169Z,6.75
2023-03-29T01:49:25.259Z,6.76
2023-03-29T01:50:25.398Z,6.77
2023-03-29T01:51:25.534Z,6.77
2023-03-29T01:52:25.642Z,6.78
2023-03-29T01:53:25.758Z,6.78
2023-03-29T01:54:25.857Z,6.78
2023-03-29T01:55:25.981Z,6.79
2023-03-29T01:56:26.147Z,6.80
2023-03-29T01:57:26.194Z,6.82
2023-03-29T01:58:26.368Z,6.84
2023-03-29T01:59:26.431Z,6.86
2023-03-29T02:00:26.584Z,6.88
2023-03-29T02:01:26.811Z,6.89
2023-03-29T02:02:27.033Z,6.90
2023-03-29T02:03:27.199Z,6.91
2023-03-29T02:04:27.103Z,6.92
2023-03-29T02:05:27.256Z,6.93
2023-03-29T02:06:27.381Z,6.95
2023-03-29T02:07:27.499Z,6.97
2023-03-29T02:08:27.610Z,6.98
2023-03-29T02:09:27.749Z,6.99
2023-03-29T02:10:27.968Z,7.00
2023-03-29T02:11:28.092Z,7.01
2023-03-29T02:12:28.152Z,7.02
2023-03-29T02:13:28.248Z,7.02
2023-03-29T02:14:28.407Z,7.02
2023-03-29T02:15:28.558Z,7.02
2023-03-29T02:16:28.704Z,7.02
2023-03-29T02:17:28.821Z,7.03
2023-03-29T02:18:28.893Z,7.04
2023-03-29T02:19:29.035Z,7.05
2023-03-29T02:20:29.175Z,7.05
2023-03-29T02:21:29.352Z,7.06
2023-03-29T02:22:29.440Z,7.08
2023-03-29T02:23:29.569Z,7.09
2023-03-29T02:24:29.713Z,7.10
2023-03-29T02:25:29.857Z,7.09
2023-03-29T02:26:30.027Z,7.09
2023-03-29T02:27:30.126Z,7.09
2023-03-29T02:28:30.293Z,7.09
2023-03-29T02:29:30.396Z,7.10
2023-03-29T02:30:30.513Z,7.11
2023-03-29T02:31:30.691Z,7.13
2023-03-29T02:32:30.816Z,7.14
2023-03-29T02:33:30.868Z,7.15
2023-03-29T02:34:31.029Z,7.15
2023-03-29T02:35:31.163Z,7.16
2023-03-29T02:36:31.295Z,7.17
2023-03-29T02:37:31.415Z,7.18
2023-03-29T02:38:31.542Z,7.19
2023-03-29T02:39:31.640Z,7.21
2023-03-29T02:40:31.741Z,7.22
2023-03-29T02:41:31.888Z,7.24
2023-03-29T02:42:32.145Z,7.25
2023-03-29T02:43:32.165Z,7.25
2023-03-29T02:44:32.327Z,7.25
2023-03-29T02:45:32.507Z,7.26
2023-03-29T02:46:32.553Z,7.26
2023-03-29T02:47:32.818Z,7.25
2023-03-29T02:48:32.904Z,7.25
2023-03-29T02:49:32.954Z,7.26
2023-03-29T02:50:33.100Z,7.26
2023-03-29T02:51:33.236Z,7.27
2023-03-29T02:52:33.416Z,7.27
2023-03-29T02:53:33.452Z,7.28
2023-03-29T02:54:33.595Z,7.28
2023-03-29T02:55:33.770Z,7.27
2023-03-29T02:56:33.917Z,7.27
2023-03-29T02:57:34.050Z,7.27
2023-03-29T02:58:34.244Z,7.27
2023-03-29T02:59:34.261Z,7.28
2023-03-29T03:00:34.410Z,7.29
2023-03-29T03:01:34.532Z,7.30
2023-03-29T03:02:34.702Z,7.32
2023-03-29T03:03:34.882Z,7.33
2023-03-29T03:04:34.892Z,7.33
2023-03-29T03:05:35.109Z,7.33
2023-03-29T03:06:35.109Z,7.33
2023-03-29T03:07:35.284Z,7.33
2023-03-29T03:08:35.421Z,7.33
2023-03-29T03:09:35.502Z,7.33
2023-03-29T03:10:35.630Z,7.34
2023-03-29T03:11:35.766Z,7.34
2023-03-29T03:12:35.947Z,7.34
2023-03-29T03:13:36.032Z,7.35
2023-03-29T03:14:36.163Z,7.36
2023-03-29T03:15:36.279Z,7.36
2023-03-29T03:16:36.432Z,7.36
2023-03-29T03:17:36.585Z,7.36
2023-03-29T03:18:36.647Z,7.37
2023-03-29T03:19:36.810Z,7.37
2023-03-29T03:20:36.922Z,7.38
2023-03-29T03:21:36.983Z,7.39
2023-03-29T03:22:37.117Z,7.40
2023-03-29T03:23:37.202Z,7.40
2023-03-29T03:24:37.322Z,7.41
2023-03-29T03:25:37.514Z,7.42
2023-03-29T03:26:37.526Z,7.43
2023-03-29T03:27:37.646Z,7.43
2023-03-29T03:28:37.781Z,7.44
2023-03-29T03:29:37.914Z,7.44
2023-03-29T03:30:38.009Z,7.44
2023-03-29T03:31:38.188Z,7.45
2023-03-29T03:32:38.292Z,7.45
2023-03-29T03:33:38.364Z,7.46
2023-03-29T03:34:38.537Z,7.47
2023-03-29T03:35:38.664Z,7.48
2023-03-29T03:36:38.708Z,7.48
2023-03-29T03:37:38.867Z,7.48
2023-03-29T03:38:38.929Z,7.49
2023-03-29T03:39:39.078Z,7.49
2023-03-29T03:40:39.156Z,7.49
2023-03-29T03:41:39.270Z,7.49
2023-03-29T03:42:39.423Z,7.50
2023-03-29T03:43:39.481Z,7.51
2023-03-29T03:44:39.641Z,7.52
2023-03-29T03:45:39.759Z,7.53
2023-03-29T03:46:39.870Z,7.55
2023-03-29T03:47:39.981Z,7.56
2023-03-29T03:48:40.076Z,7.57
2023-03-29T03:49:40.195Z,7.57
2023-03-29T03:50:40.303Z,7.57
2023-03-29T03:51:40.447Z,7.58
2023-03-29T03:52:40.539Z,7.58
2023-03-29T03:53:40.615Z,7.59
2023-03-29T03:54:40.864Z,7.59
2023-03-29T03:55:40.853Z,7.60
2023-03-29T03:56:41.068Z,7.60
2023-03-29T03:57:41.097Z,7.61
2023-03-29T03:58:41.155Z,7.62
2023-03-29T03:59:41.304Z,7.62
2023-03-29T04:00:41.392Z,7.61
2023-03-29T04:01:41.549Z,7.61
2023-03-29T04:02:41.748Z,7.62
2023-03-29T04:03:41.842Z,7.63
2023-03-29T04:04:41.862Z,7.64
2023-03-29T04:05:42.019Z,7.64
2023-03-29T04:06:43.667Z,7.65
2023-03-29T04:07:42.204Z,7.66
2023-03-29T04:08:42.323Z,7.66
2023-03-29T04:09:42.411Z,7.66
2023-03-29T04:10:42.572Z,7.66
2023-03-29T04:11:42.655Z,7.66
2023-03-29T04:12:42.732Z,7.66
2023-03-29T04:13:42.840Z,7.67
2023-03-29T04:14:43.090Z,7.67
2023-03-29T04:15:43.082Z,7.67
2023-03-29T04:16:43.514Z,7.67
2023-03-29T04:17:43.456Z,7.67
2023-03-29T04:18:43.486Z,7.67
2023-03-29T04:19:43.547Z,7.67
2023-03-29T04:20:43.673Z,7.68
2023-03-29T04:21:43.728Z,7.68
2023-03-29T04:22:43.884Z,7.68
2023-03-29T04:23:43.957Z,7.68
2023-03-29T04:24:44.076Z,7.68
2023-03-29T04:25:44.247Z,7.68
2023-03-29T04:26:44.307Z,7.68
2023-03-29T04:27:44.428Z,7.68
2023-03-29T04:28:44.523Z,7.68
2023-03-29T04:29:44.648Z,7.69
2023-03-29T04:30:44.785Z,7.69
2023-03-29T04:31:44.913Z,7.69
2023-03-29T04:32:45.077Z,7.69
2023-03-29T04:33:45.092Z,7.70
2023-03-29T04:34:45.228Z,7.71
2023-03-29T04:35:45.376Z,7.72
2023-03-29T04:36:45.465Z,7.73
2023-03-29T04:37:45.683Z,7.74
2023-03-29T04:38:47.805Z,7.75
2023-03-29T04:39:45.793Z,7.75
2023-03-29T04:40:45.942Z,7.75
2023-03-29T04:41:46.025Z,7.76
2023-03-29T04:42:46.149Z,7.77
2023-03-29T04:43:46.329Z,7.78
2023-03-29T04:44:46.395Z,7.78
2023-03-29T04:45:46.491Z,7.77
2023-03-29T04:46:46.674Z,7.76
2023-03-29T04:47:46.772Z,7.76
2023-03-29T04:48:46.879Z,7.76
2023-03-29T04:49:46.949Z,7.76
2023-03-29T04:50:47.063Z,7.76
2023-03-29T04:51:47.162Z,7.77
2023-03-29T04:52:47.338Z,7.77
2023-03-29T04:53:47.424Z,7.78
2023-03-29T04:54:47.501Z,7.79
2023-03-29T04:55:47.616Z,7.79
2023-03-29T04:56:47.743Z,7.80
2023-03-29T04:57:47.851Z,7.80
2023-03-29T04:58:47.947Z,7.81
2023-03-29T04:59:48.108Z,7.81
2023-03-29T05:00:48.184Z,7.82
2023-03-29T05:01:48.355Z,7.83
2023-03-29T05:02:48.443Z,7.84
2023-03-29T05:03:48.573Z,7.85
2023-03-29T05:04:48.734Z,7.86
2023-03-29T05:05:48.723Z,7.87
2023-03-29T05:06:48.838Z,7.88
2023-03-29T05:07:48.981Z,7.89
2023-03-29T05:08:49.086Z,7.90
2023-03-29T05:09:49.227Z,7.91
2023-03-29T05:10:49.315Z,7.92
2023-03-29T05:11:49.448Z,7.93
2023-03-29T05:12:49.544Z,7.94
2023-03-29T05:13:49.649Z,7.94
2023-03-29T05:14:49.837Z,7.95
2023-03-29T05:15:50.029Z,7.96
2023-03-29T05:16:50.008Z,7.97
2023-03-29T05:17:50.162Z,7.98
2023-03-29T05:18:50.269Z,7.99
2023-03-29T05:19:50.453Z,7.99
2023-03-29T05:20:50.464Z,8.00
2023-03-29T05:21:50.601Z,8.00
2023-03-29T05:22:50.694Z,8.01
2023-03-29T05:23:50.808Z,8.01
2023-03-29T05:24:50.917Z,8.02
2023-03-29T05:25:51.054Z,8.03
2023-03-29T05:26:51.131Z,8.03
2023-03-29T05:27:51.316Z,8.04
2023-03-29T05:28:51.357Z,8.03
2023-03-29T05:29:51.468Z,8.03
2023-03-29T05:30:51.600Z,8.04
2023-03-29T05:31:51.780Z,8.05
2023-03-29T05:32:51.848Z,8.07
2023-03-29T05:33:51.958Z,8.07
2023-03-29T05:34:52.076Z,8.08
2023-03-29T05:35:52.237Z,8.08
2023-03-29T05:36:52.311Z,8.09
2023-03-29T05:37:52.364Z,8.09
2023-03-29T05:38:52.493Z,8.09
2023-03-29T05:39:52.644Z,8.10
2023-03-29T05:40:52.741Z,8.10
2023-03-29T05:41:52.851Z,8.11
2023-03-29T05:42:52.954Z,8.12
2023-03-29T05:43:53.065Z,8.13
2023-03-29T05:44:54.479Z,8.15
2023-03-29T05:45:53.425Z,8.15
2023-03-29T05:46:53.427Z,8.15
2023-03-29T05:47:53.538Z,8.16
2023-03-29T05:48:53.628Z,8.17
2023-03-29T05:49:53.759Z,8.18
2023-03-29T05:50:53.875Z,8.19
2023-03-29T05:51:53.998Z,8.19
2023-03-29T05:52:54.099Z,8.20
2023-03-29T05:53:54.244Z,8.21
2023-03-29T05:54:54.358Z,8.21
2023-03-29T05:55:54.446Z,8.22
2023-03-29T05:56:54.619Z,8.23
2023-03-29T05:57:54.650Z,8.24
2023-03-29T05:58:55.136Z,8.24
2023-03-29T05:59:54.868Z,8.25
2023-03-29T06:00:54.971Z,8.26
2023-03-29T06:01:55.158Z,8.26
2023-03-29T06:02:57.618Z,8.27
2023-03-29T06:03:56.444Z,8.27
2023-03-29T06:04:55.599Z,8.26
2023-03-29T06:05:55.528Z,8.25
2023-03-29T06:06:55.720Z,8.25
2023-03-29T06:07:55.789Z,8.26
2023-03-29T06:08:55.909Z,8.26
2023-03-29T06:09:56.020Z,8.27
2023-03-29T06:10:56.132Z,8.28
2023-03-29T06:11:56.299Z,8.30
2023-03-29T06:12:56.416Z,8.31
2023-03-29T06:13:56.493Z,8.33
2023-03-29T06:14:56.653Z,8.35
2023-03-29T06:15:56.697Z,8.37
2023-03-29T06:16:56.935Z,8.39
2023-03-29T06:17:57.032Z,8.41
2023-03-29T06:18:57.048Z,8.42
2023-03-29T06:19:57.150Z,8.44
2023-03-29T06:20:57.270Z,8.45
2023-03-29T06:21:57.431Z,8.46
2023-03-29T06:22:57.489Z,8.48
2023-03-29T06:23:57.599Z,8.51
2023-03-29T06:24:57.708Z,8.54
2023-03-29T06:25:57.876Z,8.56
2023-03-29T06:26:57.989Z,8.59
2023-03-29T06:27:58.051Z,8.63
2023-03-29T06:28:58.165Z,8.66
2023-03-29T06:29:58.268Z,8.68
2023-03-29T06:30:58.445Z,8.70
2023-03-29T06:31:58.561Z,8.71
2023-03-29T06:32:58.633Z,8.71
2023-03-29T06:33:58.793Z,8.73
2023-03-29T06:34:58.951Z,8.74
2023-03-29T06:35:58.988Z,8.75
2023-03-29T06:36:59.140Z,8.75
2023-03-29T06:37:59.179Z,8.75
2023-03-29T06:38:59.341Z,8.76
2023-03-29T06:39:59.417Z,8.78
2023-03-29T06:40:59.637Z,8.79
2023-03-29T06:42:02.091Z,8.81
2023-03-29T06:43:00.777Z,8.81
2023-03-29T06:43:59.891Z,8.82
2023-03-29T06:44:59.957Z,8.84
2023-03-29T06:46:00.143Z,8.87
2023-03-29T06:47:00.209Z,8.88
2023-03-29T06:48:00.426Z,8.88
2023-03-29T06:49:00.433Z,8.88
2023-03-29T06:50:00.510Z,8.89
2023-03-29T06:51:00.940Z,8.90
2023-03-29T06:52:00.799Z,8.92
2023-03-29T06:53:00.848Z,8.93
2023-03-29T06:54:01.088Z,8.94
2023-03-29T06:55:01.139Z,8.96
2023-03-29T06:56:01.205Z,8.98
2023-03-29T06:57:01.346Z,9.02
2023-03-29T06:58:02.676Z,9.06
2023-03-29T06:59:01.510Z,9.09
2023-03-29T07:00:01.663Z,9.12
2023-03-29T07:01:01.941Z,9.16
2023-03-29T07:02:01.936Z,9.20
2023-03-29T07:03:02.070Z,9.22
2023-03-29T07:04:02.127Z,9.26
2023-03-29T07:05:02.195Z,9.31
2023-03-29T07:06:02.307Z,9.36
2023-03-29T07:07:02.430Z,9.37
2023-03-29T07:08:02.583Z,9.38
2023-03-29T07:09:02.626Z,9.39
2023-03-29T07:10:02.779Z,9.40
2023-03-29T07:11:03.385Z,9.40
2023-03-29T07:12:03.029Z,9.41
2023-03-29T07:13:03.131Z,9.42
2023-03-29T07:14:03.245Z,9.43
2023-03-29T07:15:03.386Z,9.45
2023-03-29T07:16:03.547Z,9.46
2023-03-29T07:17:03.576Z,9.48
2023-03-29T07:18:03.792Z,9.49
2023-03-29T07:19:03.854Z,9.48
2023-03-29T07:20:03.894Z,9.47
2023-03-29T07:21:04.312Z,9.46
2023-03-29T07:22:04.132Z,9.45
2023-03-29T07:23:04.246Z,9.43
2023-03-29T07:24:04.390Z,9.42
2023-03-29T07:25:04.509Z,9.42
2023-03-29T07:26:04.695Z,9.41
2023-03-29T07:27:05.126Z,9.39
2023-03-29T07:28:04.843Z,9.38
2023-03-29T07:29:05.019Z,9.39
2023-03-29T07:30:05.067Z,9.41
2023-03-29T07:31:05.196Z,9.44
2023-03-29T07:32:05.275Z,9.47
2023-03-29T07:33:05.470Z,9.49
2023-03-29T07:34:05.549Z,9.50
2023-03-29T07:35:05.713Z,9.51
2023-03-29T07:36:05.720Z,9.51
2023-03-29T07:37:05.847Z,9.52
2023-03-29T07:38:05.923Z,9.53
2023-03-29T07:39:06.121Z,9.53
2023-03-29T07:40:06.128Z,9.54
2023-03-29T07:41:06.231Z,9.54
2023-03-29T07:42:06.340Z,9.55
2023-03-29T07:43:06.464Z,9.58
2023-03-29T07:44:06.595Z,9.61
2023-03-29T07:45:06.699Z,9.63
2023-03-29T07:46:06.971Z,9.67
2023-03-29T07:47:06.969Z,9.71
2023-03-29T07:48:07.142Z,9.74
2023-03-29T07:49:07.143Z,9.76
2023-03-29T07:50:07.254Z,9.78
2023-03-29T07:51:07.378Z,9.79
2023-03-29T07:52:07.469Z,9.79
2023-03-29T07:53:07.604Z,9.79
2023-03-29T07:54:07.681Z,9.80
2023-03-29T07:55:08.032Z,9.81
2023-03-29T07:56:07.911Z,9.82
2023-03-29T07:57:08.062Z,9.85
2023-03-29T07:58:08.127Z,9.87
2023-03-29T07:59:08.309Z,9.88
2023-03-29T08:00:08.403Z,9.88
2023-03-29T08:01:08.636Z,9.88
2023-03-29T08:02:08.644Z,9.87
2023-03-29T08:03:08.908Z,9.87
2023-03-29T08:04:09.038Z,9.87
2023-03-29T08:05:09.229Z,9.89
2023-03-29T08:06:09.222Z,9.92
2023-03-29T08:07:09.319Z,9.96
2023-03-29T08:08:09.816Z,9.99
2023-03-29T08:09:09.601Z,10.03
2023-03-29T08:10:09.713Z,10.06
2023-03-29T08:11:09.911Z,10.07
2023-03-29T08:12:10.001Z,10.08
2023-03-29T08:13:10.100Z,10.10
2023-03-29T08:14:10.186Z,10.14
2023-03-29T08:15:10.361Z,10.18
2023-03-29T08:16:10.419Z,10.21
2023-03-29T08:17:10.591Z,10.24
2023-03-29T08:18:10.786Z,10.29
2023-03-29T08:19:10.855Z,10.33
2023-03-29T08:20:10.960Z,10.35
2023-03-29T08:21:11.104Z,10.33
2023-03-29T08:22:11.219Z,10.31
2023-03-29T08:23:11.338Z,10.31
2023-03-29T08:24:11.447Z,10.33
2023-03-29T08:25:11.643Z,10.34
2023-03-29T08:26:11.725Z,10.33
2023-03-29T08:27:11.803Z,10.32
2023-03-29T08:28:11.984Z,10.31
2023-03-29T08:29:12.143Z,10.31
2023-03-29T08:30:12.218Z,10.31
2023-03-29T08:31:12.405Z,10.32
2023-03-29T08:32:12.433Z,10.35
2023-03-29T08:33:12.584Z,10.35
2023-03-29T08:34:12.640Z,10.34
2023-03-29T08:35:12.879Z,10.32
2023-03-29T08:36:12.913Z,10.30
2023-03-29T08:37:12.993Z,10.31
2023-03-29T08:38:13.113Z,10.34
2023-03-29T08:39:13.211Z,10.37
2023-03-29T08:40:13.320Z,10.39
2023-03-29T08:41:13.527Z,10.42
2023-03-29T08:42:13.587Z,10.47
2023-03-29T08:43:13.762Z,10.52
2023-03-29T08:44:13.855Z,10.56
2023-03-29T08:45:13.953Z,10.61
2023-03-29T08:46:14.168Z,10.64
2023-03-29T08:47:14.194Z,10.66
2023-03-29T08:48:14.391Z,10.68
2023-03-29T08:49:14.490Z,10.71
2023-03-29T08:50:14.691Z,10.75
2023-03-29T08:51:14.819Z,10.78
2023-03-29T08:52:14.901Z,10.78
2023-03-29T08:53:15.011Z,10.78
2023-03-29T08:54:15.103Z,10.78
2023-03-29T08:55:15.338Z,10.79
2023-03-29T08:56:15.446Z,10.83
2023-03-29T08:57:15.585Z,10.85
2023-03-29T08:58:15.655Z,10.84
2023-03-29T08:59:15.780Z,10.81
2023-03-29T09:00:15.882Z,10.79
2023-03-29T09:01:16.139Z,10.78
2023-03-29T09:02:16.191Z,10.78
2023-03-29T09:03:16.314Z,10.78
2023-03-29T09:04:16.372Z,10.76
2023-03-29T09:05:16.476Z,10.71
2023-03-29T09:06:16.623Z,10.66
2023-03-29T09:07:16.738Z,10.64
2023-03-29T09:08:16.859Z,10.63
2023-03-29T09:09:17.010Z,10.64
2023-03-29T09:10:17.082Z,10.67
2023-03-29T09:11:17.196Z,10.69
2023-03-29T09:12:17.308Z,10.73
2023-03-29T09:13:17.543Z,10.78
2023-03-29T09:14:17.548Z,10.82
2023-03-29T09:15:17.723Z,10.85
2023-03-29T09:16:17.854Z,10.89
2023-03-29T09:17:17.898Z,10.91
2023-03-29T09:18:18.061Z,10.93
2023-03-29T09:19:18.220Z,10.94
2023-03-29T09:20:18.299Z,10.94
2023-03-29T09:21:18.375Z,10.92
2023-03-29T09:22:18.504Z,10.88
2023-03-29T09:23:18.590Z,10.85
2023-03-29T09:24:18.802Z,10.86
2023-03-29T09:25:18.842Z,10.86
2023-03-29T09:26:18.965Z,10.85
2023-03-29T09:27:19.103Z,10.85
2023-03-29T09:28:19.230Z,10.85
2023-03-29T09:29:19.330Z,10.86
2023-03-29T09:30:19.499Z,10.87
2023-03-29T09:31:19.684Z,10.89
2023-03-29T09:32:19.772Z,10.89
2023-03-29T09:33:19.851Z,10.90
2023-03-29T09:34:19.960Z,10.91
2023-03-29T09:35:20.134Z,10.94
2023-03-29T09:36:20.161Z,10.94
2023-03-29T09:37:20.399Z,10.91
2023-03-29T09:38:20.455Z,10.89
2023-03-29T09:39:20.582Z,10.89
2023-03-29T09:40:20.684Z,10.92
2023-03-29T09:41:20.863Z,10.96
2023-03-29T09:42:21.011Z,11.00
2023-03-29T09:43:21.065Z,11.02
2023-03-29T09:44:30.344Z,11.02
2023-03-29T09:45:22.874Z,11.03
2023-03-29T09:46:21.524Z,11.06
2023-03-29T09:47:21.545Z,11.10
2023-03-29T09:48:21.680Z,11.16
2023-03-29T09:49:21.836Z,11.24
2023-03-29T09:50:31.095Z,11.28
2023-03-29T09:51:23.123Z,11.29
2023-03-29T09:52:22.239Z,11.29
2023-03-29T09:53:22.360Z,11.31
2023-03-29T09:54:22.494Z,11.36
2023-03-29T09:55:22.616Z,11.41
2023-03-29T09:56:22.750Z,11.44
2023-03-29T09:57:22.884Z,11.45
2023-03-29T09:58:22.984Z,11.47
2023-03-29T09:59:23.133Z,11.50
2023-03-29T10:00:23.365Z,11.52
2023-03-29T10:01:23.473Z,11.50
2023-03-29T10:02:23.565Z,11.48
2023-03-29T10:03:23.662Z,11.46
2023-03-29T10:04:23.873Z,11.43
2023-03-29T10:05:23.896Z,11.41
2023-03-29T10:06:24.047Z,11.43
2023-03-29T10:07:24.134Z,11.45
2023-03-29T10:08:24.224Z,11.47
2023-03-29T10:09:24.359Z,11.51
2023-03-29T10:10:24.554Z,11.54
2023-03-29T10:11:24.614Z,11.56
2023-03-29T10:12:24.788Z,11.59
2023-03-29T10:13:24.909Z,11.62
2023-03-29T10:14:25.004Z,11.65
2023-03-29T10:15:29.602Z,11.67
2023-03-29T10:16:26.348Z,11.71
2023-03-29T10:17:25.484Z,11.79
2023-03-29T10:18:25.568Z,11.87
2023-03-29T10:19:25.671Z,11.93
2023-03-29T10:20:25.876Z,11.96
2023-03-29T10:21:25.987Z,11.98
2023-03-29T10:22:26.090Z,12.00
2023-03-29T10:23:26.194Z,12.04
2023-03-29T10:24:26.361Z,12.09
2023-03-29T10:25:26.482Z,12.13
2023-03-29T10:26:26.662Z,12.14
2023-03-29T10:27:26.743Z,12.17
2023-03-29T10:28:26.873Z,12.21
2023-03-29T10:29:26.989Z,12.23
2023-03-29T10:30:27.114Z,12.22
2023-03-29T10:31:27.308Z,12.19
2023-03-29T10:32:27.413Z,12.14
2023-03-29T10:33:27.481Z,12.07
2023-03-29T10:34:27.615Z,12.01
2023-03-29T10:35:27.826Z,11.97
2023-03-29T10:36:27.881Z,11.93
2023-03-29T10:37:28.011Z,11.88
2023-03-29T10:38:28.109Z,11.87
2023-03-29T10:39:28.294Z,11.87
2023-03-29T10:40:28.390Z,11.90
2023-03-29T10:41:28.487Z,11.91
2023-03-29T10:42:28.640Z,11.89
2023-03-29T10:43:28.778Z,11.89
2023-03-29T10:44:30.881Z,11.93
2023-03-29T10:45:29.031Z,11.96
2023-03-29T10:46:29.225Z,11.99
2023-03-29T10:47:29.358Z,11.98
2023-03-29T10:48:29.480Z,11.96
2023-03-29T10:49:29.647Z,11.94
2023-03-29T10:50:29.681Z,11.90
2023-03-29T10:51:29.825Z,11.90
2023-03-29T10:52:29.977Z,11.92
2023-03-29T10:53:30.102Z,11.94
2023-03-29T10:54:30.209Z,11.97
2023-03-29T10:55:30.412Z,12.01
2023-03-29T10:56:30.439Z,12.04
2023-03-29T10:57:30.661Z,12.09
2023-03-29T10:58:30.692Z,12.17
2023-03-29T10:59:30.889Z,12.25
2023-03-29T11:00:30.975Z,12.34
2023-03-29T11:01:31.204Z,12.41
2023-03-29T11:02:31.314Z,12.43
2023-03-29T11:03:31.484Z,12.45
2023-03-29T11:04:31.598Z,12.49
2023-03-29T11:05:31.606Z,12.55
2023-03-29T11:06:31.768Z,12.62
2023-03-29T11:07:31.953Z,12.67
2023-03-29T11:08:32.165Z,12.69
2023-03-29T11:09:32.084Z,12.74
2023-03-29T11:10:32.223Z,12.80
2023-03-29T11:11:32.314Z,12.88
2023-03-29T11:12:32.509Z,12.97
2023-03-29T11:13:32.658Z,13.04
2023-03-29T11:14:32.749Z,13.05
2023-03-29T11:15:35.519Z,13.07
2023-03-29T11:16:33.047Z,13.12
2023-03-29T11:17:33.174Z,13.17
2023-03-29T11:18:33.258Z,13.22
2023-03-29T11:19:33.364Z,13.28
2023-03-29T11:20:33.577Z,13.36
2023-03-29T11:21:33.634Z,13.49
2023-03-29T11:22:33.715Z,13.66
2023-03-29T11:23:33.876Z,13.86
2023-03-29T11:24:34.014Z,14.00
2023-03-29T11:25:34.153Z,14.07
2023-03-29T11:26:34.267Z,14.14
2023-03-29T11:27:34.467Z,14.20
2023-03-29T11:28:34.542Z,14.26
2023-03-29T11:29:34.645Z,14.33
2023-03-29T11:30:34.914Z,14.39
2023-03-29T11:31:37.211Z,14.44
2023-03-29T11:32:35.033Z,14.46
2023-03-29T11:33:35.174Z,14.45
2023-03-29T11:34:35.314Z,14.44
2023-03-29T11:35:35.477Z,14.43
2023-03-29T11:36:35.533Z,14.45
2023-03-29T11:37:35.657Z,14.45
2023-03-29T11:38:35.844Z,14.42
2023-03-29T11:39:35.894Z,14.38
2023-03-29T11:40:36.023Z,14.37
2023-03-29T11:41:36.118Z,14.36
2023-03-29T11:42:36.224Z,14.37
2023-03-29T11:43:36.317Z,14.41
2023-03-29T11:44:36.452Z,14.44
2023-03-29T11:45:36.598Z,14.44
2023-03-29T11:46:36.755Z,14.42
2023-03-29T11:47:36.847Z,14.42
2023-03-29T11:48:36.982Z,14.40
2023-03-29T11:49:37.082Z,14.36
2023-03-29T11:50:37.226Z,14.31
2023-03-29T11:51:37.359Z,14.27
2023-03-29T11:52:37.511Z,14.26
2023-03-29T11:53:37.843Z,14.25
2023-03-29T11:54:44.777Z,14.27
2023-03-29T11:55:37.983Z,14.28
2023-03-29T11:56:38.137Z,14.28
2023-03-29T11:57:38.130Z,14.31
2023-03-29T11:58:39.075Z,14.33
2023-03-29T11:59:38.344Z,14.36
2023-03-29T12:00:38.476Z,14.41
2023-03-29T12:01:38.668Z,14.42
2023-03-29T12:02:38.903Z,14.40
2023-03-29T12:03:38.980Z,14.42
2023-03-29T12:04:39.004Z,14.48
2023-03-29T12:05:39.141Z,14.58
2023-03-29T12:06:39.258Z,14.71
2023-03-29T12:07:39.361Z,14.87
2023-03-29T12:08:39.555Z,15.07
2023-03-29T12:09:39.665Z,15.23
2023-03-29T12:10:39.769Z,15.31
2023-03-29T12:11:39.879Z,15.35
2023-03-29T12:12:40.017Z,15.38
2023-03-29T12:13:40.162Z,15.37
2023-03-29T12:14:40.239Z,15.34
2023-03-29T12:15:40.384Z,15.32
2023-03-29T12:16:40.546Z,15.30
2023-03-29T12:17:40.672Z,15.27
2023-03-29T12:18:40.965Z,15.28
2023-03-29T12:19:43.203Z,15.28
2023-03-29T12:20:41.022Z,15.24
2023-03-29T12:21:41.192Z,15.22
2023-03-29T12:22:41.306Z,15.17
2023-03-29T12:23:43.046Z,15.15
2023-03-29T12:24:41.568Z,15.17
2023-03-29T12:25:41.673Z,15.21
2023-03-29T12:26:41.795Z,15.24
2023-03-29T12:27:41.890Z,15.26
2023-03-29T12:28:42.071Z,15.29
2023-03-29T12:29:42.164Z,15.30
2023-03-29T12:30:42.281Z,15.31
2023-03-29T12:31:42.411Z,15.33
2023-03-29T12:32:42.622Z,15.32
2023-03-29T12:33:42.660Z,15.26
2023-03-29T12:34:42.785Z,15.22
2023-03-29T12:35:42.915Z,15.19
2023-03-29T12:36:43.037Z,15.17
2023-03-29T12:37:43.118Z,15.11
2023-03-29T12:38:43.261Z,15.03
2023-03-29T12:39:43.434Z,14.97
2023-03-29T12:40:43.610Z,15.00
2023-03-29T12:41:43.653Z,15.11
2023-03-29T12:42:43.806Z,15.21
2023-03-29T12:43:43.910Z,15.27
2023-03-29T12:44:44.071Z,15.28
2023-03-29T12:45:44.264Z,15.29
2023-03-29T12:46:44.375Z,15.26
2023-03-29T12:47:44.489Z,15.16
2023-03-29T12:48:44.559Z,15.12
2023-03-29T12:49:44.681Z,15.15
2023-03-29T12:50:44.897Z,15.18
2023-03-29T12:51:45.004Z,15.22
2023-03-29T12:52:45.078Z,15.26
2023-03-29T12:53:45.229Z,15.29
2023-03-29T12:54:45.378Z,15.29
2023-03-29T12:55:45.546Z,15.26
2023-03-29T12:56:45.717Z,15.21
2023-03-29T12:57:45.747Z,15.19
2023-03-29T12:58:45.875Z,15.20
2023-03-29T12:59:46.102Z,15.22
2023-03-29T13:00:46.165Z,15.26
2023-03-29T13:01:46.406Z,15.27
2023-03-29T13:02:46.484Z,15.26
2023-03-29T13:03:46.624Z,15.26
2023-03-29T13:04:46.764Z,15.26
2023-03-29T13:05:47.118Z,15.26
2023-03-29T13:06:46.985Z,15.26
2023-03-29T13:07:47.085Z,15.31
2023-03-29T13:08:47.157Z,15.35
2023-03-29T13:09:47.389Z,15.41